Nearby METAR Reports

 

KAVP - Avoca/Wilkes B., Pennsylvania, USA
Distance from station: NE 13mi, 20km
Updated: Mon, 17-Jun-2019 9:54am PDT
Overcast
Overcast
 Wind from calm
Wind: Calm
Temperature: 66°F , 19°C
Dew Point: 63°F , 17°C
Humidity: 88%
Barometer: 30.03 inHg , 1016.9 hPa
Clouds: Overcast
Visibility: 10 miles , 16 km
Cloud details: Overcast 1200 ft
2019/06/17 16:54 KAVP 171654Z 00000KT 10SM OVC012 19/17 A3003 RMK AO2 SLP164 T01940167
KMPO - Mt. Pocono, Pennsylvania, USA
Distance from station: ESE 28mi, 45km
Updated: Mon, 17-Jun-2019 9:53am PDT
Overcast
Overcast
 Wind from SE
Wind: SE 7 mph , 11 km/h
Temperature: 64°F , 18°C
Dew Point: 63°F , 17°C
Humidity: 94%
Barometer: 30.04 inHg , 1017.3 hPa
Clouds: Overcast
Visibility: 10 miles , 16 km
Cloud details: Mostly Cloudy 1000 ft
Overcast 2400 ft
2019/06/17 16:53 KMPO 171653Z AUTO 13006KT 10SM BKN010 OVC024 18/17 A3004 RMK AO2 RAB11E21 CIG 007V013 SLP167 P0000 T01830167
 
KABE - Allentown, Pennsylvania, USA
Distance from station: SSE 46mi, 74km
Updated: Mon, 17-Jun-2019 9:51am PDT
Overcast
Overcast
 Wind from calm
Wind: Calm
Temperature: 75°F , 24°C
Dew Point: 64°F , 18°C
Humidity: 69%
Barometer: 30.01 inHg , 1016.3 hPa
Clouds: Overcast
Visibility: 10 miles , 16 km
Cloud details: Partly Cloudy 2000 ft
Mostly Cloudy 2600 ft
Overcast 4500 ft
2019/06/17 16:51 KABE 171651Z 00000KT 10SM SCT020 BKN026 OVC045 24/18 A3001 RMK AO2 RAE1552 SLP158 P0000 T02440178 $
KXLL - Allentown Queen, Pennsylvania, USA
Distance from station: SSE 50mi, 81km
Updated: Mon, 17-Jun-2019 9:55am PDT
Overcast
Overcast
 Wind from calm
Wind: Calm
Barometer: 30.02 inHg , 1016.6 hPa
Clouds: Overcast
Visibility: 10 miles , 16 km
Cloud details: Partly Cloudy 2800 ft
Overcast 3600 ft
2019/06/17 16:55 KXLL 171655Z AUTO 00000KT 10SM SCT028 OVC036 A3002 RMK AO2
 
KIPT - Williamsport, Pennsylvania, USA
Distance from station: W 52mi, 84km
Updated: Mon, 17-Jun-2019 9:54am PDT
Overcast
Overcast
 Wind from calm
Wind: Calm
Temperature: 68°F , 20°C
Dew Point: 61°F , 16°C
Humidity: 78%
Barometer: 30.01 inHg , 1016.3 hPa
Clouds: Overcast
Visibility: 10 miles , 16 km
Cloud details: Mostly Cloudy 1900 ft
Overcast 3500 ft
2019/06/17 16:54 KIPT 171654Z 00000KT 10SM BKN019 OVC035 20/16 A3001 RMK AO2 SLP158 T02000161
KSEG - Selinsgrove, Pennsylvania, USA
Distance from station: WSW 57mi, 92km
Updated: Mon, 17-Jun-2019 10:11am PDT
Light rain, Overcast
Light rain, Overcast
 Wind from calm
Wind: Calm
Temperature: 68°F , 20°C
Dew Point: 64°F , 18°C
Humidity: 88%
Barometer: 30.02 inHg , 1016.6 hPa
Summary: Light Rain
Clouds: Overcast
Visibility: 9 miles , 14 km
Cloud details: Few Clouds 600 ft
Mostly Cloudy 2600 ft
Overcast 5000 ft
2019/06/17 17:11 KSEG 171711Z AUTO 00000KT 9SM -RA FEW006 BKN026 OVC050 20/18 A3002 RMK AO2 P0000 T02000183
 
KRDG - Reading, Pennsylvania, USA
Distance from station: S 59mi, 95km
Updated: Mon, 17-Jun-2019 9:54am PDT
Overcast
Overcast
 Wind from W
Wind: W 5 mph , 7 km/h
Temperature: 75°F , 24°C
Dew Point: 68°F , 20°C
Humidity: 78%
Barometer: 30.01 inHg , 1016.3 hPa
Clouds: Overcast
Visibility: 10 miles , 16 km
Cloud details: Few Clouds 2200 ft
Overcast 3400 ft
2019/06/17 16:54 KRDG 171654Z 28004KT 10SM FEW022 OVC034 24/20 A3001 RMK AO2 SLP163 T02390200
KUKT - Quakertown Arp, Pennsylvania, USA
Distance from station: SSE 61mi, 98km
Updated: Mon, 17-Jun-2019 10:00am PDT
Overcast
Overcast
 Wind from calm
Wind: Calm
Temperature: 75°F , 24°C
Dew Point: 68°F , 20°C
Humidity: 78%
Barometer: 30.01 inHg , 1016.3 hPa
Clouds: Overcast
Visibility: 10 miles , 16 km
Cloud details: Mostly Cloudy 2100 ft
Overcast 2700 ft
2019/06/17 17:00 KUKT 171700Z AUTO 00000KT 10SM BKN021 OVC027 24/20 A3001 RMK A01
 
K12N - Andover, New Jersey, USA
Distance from station: ESE 63mi, 101km
Updated: Mon, 17-Jun-2019 9:54am PDT

 Wind from calm
Wind: Calm
Temperature: 72°F , 22°C
Dew Point: 64°F , 18°C
Humidity: 78%
Barometer: 30.02 inHg , 1016.6 hPa
2019/06/17 16:54 K12N 171654Z AUTO 00000KT 22/18 A3002 RMK AO1 SLP160 P0001 T02170178
KMUI - Muir Aaf/Indiant, Pennsylvania, USA
Distance from station: SSW 65mi, 105km
Updated: Mon, 17-Jun-2019 9:56am PDT
Light rain, Overcast
Light rain, Overcast
 Wind from calm
Wind: Calm
Temperature: 72°F , 22°C
Dew Point: 68°F , 20°C
Humidity: 88%
Barometer: 30.02 inHg , 1016.6 hPa
Summary: Light Rain
Clouds: Overcast
Visibility: 10 miles , 16 km
Cloud details: Few Clouds 600 ft
Partly Cloudy 1500 ft
Mostly Cloudy 4000 ft
Overcast 10000 ft
2019/06/17 16:56 KMUI 171656Z 00000KT 10SM -RA FEW006 SCT015 BKN040 OVC100 22/20 A3002 RMK AO2A RAB08 SLP166 P0001 T02210200
 
KFWN - Sussex, New Jersey, USA
Distance from station: E 66mi, 107km
Updated: Mon, 17-Jun-2019 9:54am PDT

 Wind from NNW
Wind: NNW 3 mph , 6 km/h
Temperature: 72°F , 22°C
Dew Point: 64°F , 18°C
Humidity: 78%
Barometer: 30.02 inHg , 1016.6 hPa
2019/06/17 16:54 KFWN 171654Z AUTO 33003KT 22/18 A3002 RMK AO2 SLP163 T02170178 $
KMSV - Monticello, New York, USA
Distance from station: ENE 67mi, 108km
Updated: Mon, 17-Jun-2019 9:56am PDT
Overcast
Overcast
 Wind from W
Wind: W 5 mph , 7 km/h
Temperature: 70°F , 21°C
Dew Point: 59°F , 15°C
Humidity: 69%
Barometer: 30.04 inHg , 1017.3 hPa
Clouds: Overcast
Visibility: 10 miles , 16 km
Cloud details: Overcast 2000 ft
2019/06/17 16:56 KMSV 171656Z AUTO 26004KT 10SM OVC020 21/15 A3004 RMK AO2 SLP168 T02060150
 
KBGM - Binghamton, New York, USA
Distance from station: N 69mi, 111km
Updated: Mon, 17-Jun-2019 9:53am PDT
Clear
Clear
 Wind from calm
Wind: Calm
Temperature: 66°F , 19°C
Dew Point: 52°F , 11°C
Humidity: 60%
Barometer: 30.04 inHg , 1017.3 hPa
Clouds: Clear
Visibility: 10 miles , 16 km
2019/06/17 16:53 KBGM 171653Z 00000KT 10SM CLR 19/11 A3004 RMK AO2 SLP168 T01890111
KPTW - Pottstown, Pennsylvania, USA
Distance from station: SSE 71mi, 114km
Updated: Mon, 17-Jun-2019 9:54am PDT
Overcast
Overcast
 Wind from NW
Wind: NW 6 mph , 9 km/h
Temperature: 75°F , 24°C
Dew Point: 66°F , 19°C
Humidity: 74%
Barometer: 30.02 inHg , 1016.6 hPa
Clouds: Overcast
Visibility: 8 miles , 13 km
Cloud details: Partly Cloudy 2600 ft
Overcast 3600 ft
2019/06/17 16:54 KPTW 171654Z AUTO 32005KT 8SM SCT026 OVC036 24/19 A3002 RMK AO2 SLP161 T02440189 $
 
KDYL - Doylestown, Pennsylvania, USA
Distance from station: SE 74mi, 119km
Updated: Mon, 17-Jun-2019 10:01am PDT
Overcast
Overcast
 Wind from calm
Wind: Calm
Temperature: 77°F , 25°C
Dew Point: 66°F , 19°C
Humidity: 69%
Barometer: 30.00 inHg , 1015.9 hPa
Clouds: Overcast
Visibility: 10 miles , 16 km
Cloud details: Few Clouds 2400 ft
Overcast 3400 ft
2019/06/17 17:01 KDYL 171701Z AUTO 00000KT 10SM FEW024 OVC034 25/19 A3000 RMK AO2 T02500189
KSMQ - Somerville, New Jersey, USA
Distance from station: ESE 77mi, 124km
Updated: Mon, 17-Jun-2019 9:53am PDT
Few Clouds
Few Clouds
 Wind from varies
Wind: varies 3 mph , 6 km/h
Temperature: 79°F , 26°C
Dew Point: 64°F , 18°C
Humidity: 61%
Barometer: 29.98 inHg , 1015.2 hPa
Clouds: Few Clouds
Visibility: 10 miles , 16 km
Cloud details: Few Clouds 3600 ft
2019/06/17 16:53 KSMQ 171653Z AUTO VRB03KT 10SM FEW036 26/18 A2998 RMK AO2 SLP151 T02560178
 
KLNS - Lancaster, Pennsylvania, USA
Distance from station: SSW 79mi, 127km
Updated: Mon, 17-Jun-2019 9:53am PDT
Mostly Cloudy
Mostly Cloudy
 Wind from NW
Wind: NW 10 mph , 17 km/h
Temperature: 79°F , 26°C
Dew Point: 68°F , 20°C
Humidity: 70%
Barometer: 30.01 inHg , 1016.3 hPa
Clouds: Mostly Cloudy
Visibility: 10 miles , 16 km
Cloud details: Partly Cloudy 2700 ft
Mostly Cloudy 3300 ft
Mostly Cloudy 4200 ft
2019/06/17 16:53 KLNS 171653Z 31009KT 10SM SCT027 BKN033 BKN042 26/20 A3001 RMK AO2 SLP158 T02610200
KELM - Elmira, New York, USA
Distance from station: NW 82mi, 132km
Updated: Mon, 17-Jun-2019 9:53am PDT
Clear
Clear
 Wind from ENE
Wind: ENE 3 mph , 6 km/h
Temperature: 72°F , 22°C
Dew Point: 57°F , 14°C
Humidity: 61%
Barometer: 30.02 inHg , 1016.6 hPa
Clouds: Clear
Visibility: 10 miles , 16 km
2019/06/17 16:53 KELM 171653Z 06003KT 10SM CLR 22/14 A3002 RMK AO2 SLP163 T02170139
 
KLOM - Philly Wings F, Pennsylvania, USA
Distance from station: SSE 82mi, 132km
Updated: Mon, 17-Jun-2019 9:55am PDT
Overcast
Overcast
 Wind from WSW
Wind: WSW 6 mph , 9 km/h
Temperature: 79°F , 26°C
Dew Point: 66°F , 19°C
Humidity: 65%
Barometer: 30.01 inHg , 1016.3 hPa
Clouds: Overcast
Visibility: 10 miles , 16 km
Cloud details: Partly Cloudy 2900 ft
Mostly Cloudy 3500 ft
Overcast 4400 ft
2019/06/17 16:55 KLOM 171655Z AUTO 25005KT 10SM SCT029 BKN035 OVC044 26/19 A3001 RMK AO2 T02570195
KMMU - Morristown Muni, New Jersey, USA
Distance from station: ESE 83mi, 134km
Updated: Mon, 17-Jun-2019 9:45am PDT
Overcast
Overcast
 Wind from SW
Wind: SW 3 mph , 6 km/h
Temperature: 73°F , 23°C
Dew Point: 68°F , 20°C
Humidity: 83%
Barometer: 30.00 inHg , 1015.9 hPa
Clouds: Overcast
Visibility: 10 miles , 16 km
Cloud details: Mostly Cloudy 2500 ft
Overcast 4000 ft
2019/06/17 16:45 KMMU 171645Z 23003KT 10SM BKN025 OVC040 23/20 A3000

Metar display script from Saratoga-Weather.org